Time;durP1;ratioP1;P1;durP2;ratioP2;P2;SDS_P1;SDS_P2;PMS_P1;PMS_P2;Temp;Humidity;BMP_temperature;BMP_pressure;BME280_temperature;BME280_humidity;BME280_pressure;Samples;Min_cycle;Max_cycle;Signal;HPM_P1;HPM_P2
2022/12/30 00:00:15;;;;;;;28.60;6.07;;;;;;;4.91;100.00;100895.41;5052330;28;20481;-49
2022/12/30 00:02:41;;;;;;;32.47;6.50;;;;;;;4.96;100.00;100903.34;5052474;28;20032;-49
2022/12/30 00:05:06;;;;;;;36.25;6.97;;;;;;;4.92;100.00;100907.38;5052420;28;20060;-46
2022/12/30 00:07:34;;;;;;;36.67;6.72;;;;;;;4.88;100.00;100907.13;5052323;28;20029;-47
2022/12/30 00:10:00;;;;;;;38.38;6.25;;;;;;;4.87;100.00;100908.81;5052788;28;20100;-47
2022/12/30 00:35:06;;;;;;;35.60;7.18;;;;;;;4.54;100.00;100933.38;5052719;28;20035;-44
2022/12/30 00:37:31;;;;;;;40.17;6.85;;;;;;;4.56;100.00;100936.91;5052198;28;20120;-45
2022/12/30 00:39:57;;;;;;;32.53;6.75;;;;;;;4.57;100.00;100928.44;5052167;28;20021;-45
2022/12/30 00:43:07;;;;;;;35.67;7.05;;;;;;;4.52;100.00;100930.75;5052245;28;20040;-44
2022/12/30 00:45:13;;;;;;;37.80;7.43;;;;;;;4.53;100.00;100922.31;5052441;28;20059;-48
2022/12/30 00:47:38;;;;;;;41.33;7.03;;;;;;;4.50;100.00;100923.81;5051538;28;20489;-47
2022/12/30 00:58:16;;;;;;;33.28;7.45;;;;;;;4.48;100.00;100913.53;5052316;28;20127;-47
2022/12/30 01:00:41;;;;;;;45.72;8.88;;;;;;;4.50;100.00;100919.56;5051205;28;20085;-47
2022/12/30 01:03:06;;;;;;;47.63;7.70;;;;;;;4.45;100.00;100928.66;5052202;28;20025;-44
2022/12/30 01:05:31;;;;;;;50.17;9.02;;;;;;;4.49;100.00;100925.47;5052043;28;20017;-47
2022/12/30 01:07:57;;;;;;;45.42;7.90;;;;;;;4.49;100.00;100935.69;5051749;28;20028;-44
2022/12/30 01:10:22;;;;;;;47.45;8.55;;;;;;;4.50;100.00;100940.00;5052089;28;20025;-47
2022/12/30 01:12:47;;;;;;;54.85;8.38;;;;;;;4.49;100.00;100939.91;5051909;28;20099;-46
2022/12/30 01:15:13;;;;;;;36.85;7.15;;;;;;;4.44;100.00;100942.19;5051834;28;20021;-45
2022/12/30 01:17:38;;;;;;;59.70;8.30;;;;;;;4.43;100.00;100936.22;5051744;28;20021;-44
2022/12/30 01:20:05;;;;;;;56.70;9.05;;;;;;;4.40;100.00;100942.81;5052061;28;20075;-45
2022/12/30 01:22:31;;;;;;;59.30;8.68;;;;;;;4.37;100.00;100938.44;5051298;28;20028;-46
2022/12/30 01:24:56;;;;;;;59.15;9.32;;;;;;;4.39;100.00;100943.59;5053676;28;20431;-47
2022/12/30 01:27:22;;;;;;;43.40;7.90;;;;;;;4.36;100.00;100951.09;5055514;28;20021;-48
2022/12/30 01:29:47;;;;;;;44.15;8.40;;;;;;;4.35;100.00;100947.69;5054960;28;20036;-48
2022/12/30 01:32:16;;;;;;;42.92;8.93;;;;;;;4.31;100.00;100949.97;5055506;28;20506;-46
2022/12/30 01:34:42;;;;;;;48.08;8.07;;;;;;;4.32;100.00;100956.84;5055333;28;20060;-48
2022/12/30 01:37:09;;;;;;;42.85;7.93;;;;;;;4.31;100.00;100962.72;5054963;28;20464;-45
2022/12/30 01:39:34;;;;;;;43.80;8.20;;;;;;;4.23;100.00;100959.75;5054879;28;20021;-48
2022/12/30 01:42:00;;;;;;;43.80;8.20;;;;;;;4.20;100.00;100968.09;5055437;28;20025;-47
2022/12/30 01:44:47;;;;;;;45.53;8.13;;;;;;;4.23;100.00;100973.34;5055048;28;20029;-47
2022/12/30 01:47:18;;;;;;;49.40;8.63;;;;;;;4.26;100.00;100973.56;5054967;28;20075;-45
2022/12/30 01:49:46;;;;;;;43.33;8.48;;;;;;;4.27;100.00;100969.31;5054459;28;20029;-44
2022/12/30 01:52:15;;;;;;;49.20;8.88;;;;;;;4.31;100.00;100975.47;5054891;28;20563;-45
2022/12/30 01:54:40;;;;;;;45.75;8.05;;;;;;;4.27;100.00;100980.44;5054684;28;20029;-46
2022/12/30 01:57:07;;;;;;;45.08;7.95;;;;;;;4.22;100.00;100984.38;5054670;28;20028;-46
2022/12/30 01:59:33;;;;;;;39.03;8.63;;;;;;;4.24;100.00;100976.81;5054581;28;20052;-48
2022/12/30 02:02:00;;;;;;;40.00;7.20;;;;;;;4.16;100.00;100983.13;5055068;28;20291;-46
2022/12/30 02:04:27;;;;;;;49.53;8.05;;;;;;;4.18;100.00;100984.97;5054514;28;20079;-48
2022/12/30 02:07:10;;;;;;;39.77;7.70;;;;;;;4.10;100.00;100976.00;5054650;28;20070;-47
2022/12/30 02:09:36;;;;;;;47.08;9.07;;;;;;;4.11;100.00;100970.13;5054678;28;20021;-47
2022/12/30 02:12:03;;;;;;;46.55;7.75;;;;;;;4.05;100.00;100960.44;5054401;28;20515;-47
2022/12/30 02:14:30;;;;;;;;;;;;;;;4.12;100.00;100959.13;5054784;28;20029;-47
2022/12/30 02:17:22;;;;;;;46.70;7.97;;;;;;;4.12;100.00;100970.22;5054641;28;19922;-48
2022/12/30 02:20:05;;;;;;;40.65;8.15;;;;;;;4.15;100.00;100956.75;5054571;28;20120;-48
2022/12/30 02:23:26;;;;;;;46.42;8.48;;;;;;;4.11;100.00;100959.91;5054284;28;20029;-45
2022/12/30 02:26:01;;;;;;;51.50;7.93;;;;;;;4.07;100.00;100956.31;5029413;28;20041;-47
2022/12/30 02:28:35;;;;;;;53.75;8.00;;;;;;;4.02;100.00;100952.63;5054334;28;20432;-47
2022/12/30 02:31:11;;;;;;;35.38;7.20;;;;;;;4.01;100.00;100955.09;5054454;28;20024;-45
2022/12/30 02:33:46;;;;;;;42.88;7.50;;;;;;;4.00;100.00;100948.22;5053617;28;20484;-45
2022/12/30 02:36:18;;;;;;;45.67;7.00;;;;;;;3.98;100.00;100947.22;5053995;28;20442;-46
2022/12/30 02:39:07;;;;;;;35.75;6.88;;;;;;;3.99;100.00;100954.09;5053280;28;20458;-44
2022/12/30 02:44:36;;;;;;;;;;;;;;;4.06;100.00;100938.38;5054830;28;20044;-48
2022/12/30 02:47:20;;;;;;;41.20;7.15;;;;;;;4.04;100.00;100937.38;5053597;28;20498;-44
2022/12/30 02:52:14;;;;;;;38.85;7.43;;;;;;;4.03;100.00;100933.97;5053879;28;20040;-47
2022/12/30 02:52:36;;;;;;;42.30;7.30;;;;;;;4.03;100.00;100930.53;5053185;28;20040;-48
2022/12/30 02:55:02;;;;;;;42.50;7.68;;;;;;;3.98;100.00;100927.72;5054057;28;20028;-47
2022/12/30 02:57:31;;;;;;;45.13;8.15;;;;;;;3.97;100.00;100917.44;5053614;28;20377;-44
2022/12/30 03:06:21;;;;;;;40.97;7.75;;;;;;;3.93;100.00;100906.19;5054058;28;20120;-45
2022/12/30 03:09:05;;;;;;;51.78;7.88;;;;;;;3.83;100.00;100914.09;5053004;28;20055;-48
2022/12/30 03:11:42;;;;;;;54.40;7.90;;;;;;;3.81;100.00;100914.00;5053128;28;20039;-48
2022/12/30 03:14:20;;;;;;;45.88;7.20;;;;;;;3.86;100.00;100909.16;5053415;28;20033;-47
2022/12/30 03:16:51;;;;;;;64.40;8.20;;;;;;;3.81;100.00;100915.66;5053221;28;20028;-47
2022/12/30 03:19:20;;;;;;;40.50;7.45;;;;;;;3.80;100.00;100925.00;5053748;28;20150;-48
2022/12/30 03:21:48;;;;;;;52.60;8.10;;;;;;;3.75;100.00;100917.06;5052539;28;20040;-46
2022/12/30 03:27:06;;;;;;;42.78;7.47;;;;;;;3.71;100.00;100904.94;5053728;28;20043;-45
2022/12/30 03:29:38;;;;;;;49.03;8.15;;;;;;;3.69;100.00;100910.75;5052548;28;20563;-44
2022/12/30 03:32:06;;;;;;;45.00;7.93;;;;;;;3.75;100.00;100911.09;5053076;28;20025;-43
2022/12/30 03:34:32;;;;;;;53.17;8.50;;;;;;;3.72;100.00;100910.91;5052910;28;20025;-47
2022/12/30 03:37:14;;;;;;;46.85;7.80;;;;;;;3.68;100.00;100908.97;5052839;28;20079;-48
2022/12/30 03:39:46;;;;;;;43.75;7.82;;;;;;;3.67;100.00;100915.75;5052693;28;20025;-47
2022/12/30 03:42:12;;;;;;;46.83;8.02;;;;;;;3.65;100.00;100903.72;5052631;28;20459;-47
2022/12/30 03:44:41;;;;;;;49.88;8.30;;;;;;;3.62;100.00;100905.28;5052393;28;20021;-48
2022/12/30 03:47:12;;;;;;;39.40;7.45;;;;;;;3.59;100.00;100912.75;5052539;28;20082;-46
2022/12/30 03:49:40;;;;;;;54.67;8.57;;;;;;;3.59;100.00;100920.41;5052177;28;20514;-45
2022/12/30 03:52:06;;;;;;;48.53;8.50;;;;;;;3.53;100.00;100920.03;5052712;28;20468;-46
2022/12/30 03:54:31;;;;;;;40.42;7.57;;;;;;;3.50;100.00;100922.41;5052586;28;20063;-47
2022/12/30 03:56:56;;;;;;;56.20;8.95;;;;;;;3.48;100.00;100916.34;5052392;28;20060;-44
2022/12/30 03:59:22;;;;;;;48.53;8.18;;;;;;;3.45;100.00;100922.13;5052426;28;20029;-46
2022/12/30 04:01:47;;;;;;;44.22;8.55;;;;;;;3.40;100.00;100912.47;5052380;28;20044;-47
2022/12/30 04:04:12;;;;;;;50.63;9.68;;;;;;;3.40;100.00;100918.44;5052294;28;20021;-44
2022/12/30 04:06:37;;;;;;;50.80;8.60;;;;;;;3.34;100.00;100912.09;5052495;28;20025;-47
2022/12/30 04:09:03;;;;;;;49.75;8.88;;;;;;;3.39;100.00;100916.66;5052794;28;20032;-44
2022/12/30 04:11:28;;;;;;;42.85;8.63;;;;;;;3.36;100.00;100916.50;5052043;28;20108;-45
2022/12/30 04:13:53;;;;;;;49.10;8.40;;;;;;;3.34;100.00;100923.16;5052443;28;20028;-45
2022/12/30 04:16:19;;;;;;;44.33;10.00;;;;;;;3.27;100.00;100921.91;5052801;28;20112;-44
2022/12/30 04:18:44;;;;;;;56.75;9.65;;;;;;;3.25;100.00;100920.06;5051969;28;20025;-45
2022/12/30 04:21:10;;;;;;;37.60;8.82;;;;;;;3.32;100.00;100934.03;5052589;28;20039;-48
2022/12/30 04:23:35;;;;;;;43.38;9.10;;;;;;;3.31;100.00;100928.06;5052416;28;20025;-46
2022/12/30 04:26:00;;;;;;;56.42;8.48;;;;;;;3.33;100.00;100933.25;5052243;28;20053;-47
2022/12/30 04:28:25;;;;;;;51.75;9.35;;;;;;;3.32;100.00;100929.84;5052255;28;20024;-46
2022/12/30 04:30:51;;;;;;;54.70;8.13;;;;;;;3.29;100.00;100929.63;5052150;28;20116;-47
2022/12/30 04:33:16;;;;;;;52.70;9.13;;;;;;;3.26;100.00;100927.78;5051983;28;20029;-45
2022/12/30 04:35:41;;;;;;;44.00;9.57;;;;;;;3.26;100.00;100921.81;5051972;28;20029;-46
2022/12/30 04:38:06;;;;;;;42.25;8.85;;;;;;;3.24;100.00;100921.72;5052089;28;20033;-49
2022/12/30 04:40:32;;;;;;;40.30;9.02;;;;;;;3.22;100.00;100915.66;5051764;28;20021;-45
2022/12/30 04:42:57;;;;;;;51.63;8.20;;;;;;;3.20;100.00;100919.78;5052585;28;20040;-48
2022/12/30 04:45:22;;;;;;;55.05;9.75;;;;;;;3.17;100.00;100917.03;5051817;28;20391;-46
2022/12/30 04:47:48;;;;;;;51.83;9.55;;;;;;;3.12;100.00;100926.97;5052089;28;20029;-44
2022/12/30 04:50:13;;;;;;;50.25;9.27;;;;;;;3.13;100.00;100917.66;5052510;28;20104;-48
2022/12/30 04:52:38;;;;;;;51.60;8.85;;;;;;;3.11;100.00;100914.13;5051470;28;20384;-47
2022/12/30 04:55:04;;;;;;;50.50;8.55;;;;;;;3.09;100.00;100919.13;5052237;28;20029;-48
2022/12/30 04:57:29;;;;;;;53.35;9.20;;;;;;;3.07;100.00;100918.16;5051976;28;20146;-47
2022/12/30 04:59:54;;;;;;;45.25;9.18;;;;;;;3.09;100.00;100913.16;5053433;28;20060;-48
2022/12/30 05:02:20;;;;;;;60.03;9.63;;;;;;;3.07;100.00;100919.81;5055933;28;20020;-47
2022/12/30 05:04:45;;;;;;;42.75;9.10;;;;;;;3.08;100.00;100907.16;5055775;28;20457;-47
2022/12/30 05:07:10;;;;;;;51.78;8.98;;;;;;;3.09;100.00;100901.28;5055584;28;20036;-48
2022/12/30 05:09:36;;;;;;;65.85;10.65;;;;;;;3.10;100.00;100902.19;5055435;28;20071;-45
2022/12/30 05:12:01;;;;;;;52.08;10.10;;;;;;;3.09;100.00;100901.28;5055985;28;20033;-47
2022/12/30 05:14:26;;;;;;;50.55;9.88;;;;;;;3.07;100.00;100907.09;5055347;28;20048;-45
2022/12/30 05:16:51;;;;;;;54.17;9.77;;;;;;;3.11;100.00;100903.94;5055525;28;20017;-47
2022/12/30 05:19:17;;;;;;;51.38;8.55;;;;;;;3.09;100.00;100892.78;5056086;28;20036;-44
2022/12/30 05:21:42;;;;;;;52.60;9.80;;;;;;;3.07;100.00;100887.63;5055016;28;20380;-48
2022/12/30 05:26:55;;;;;;;52.75;9.95;;;;;;;3.13;100.00;100894.72;5056023;28;20032;-47
2022/12/30 05:29:21;;;;;;;59.75;9.48;;;;;;;3.19;100.00;100899.31;5055357;28;20033;-48
2022/12/30 05:31:46;;;;;;;63.47;10.38;;;;;;;3.16;100.00;100897.44;5055241;28;20048;-47
2022/12/30 05:34:11;;;;;;;46.05;8.95;;;;;;;3.17;100.00;100893.25;5055359;28;20048;-45
2022/12/30 05:36:38;;;;;;;53.20;9.57;;;;;;;3.18;100.00;100893.34;5055030;28;20020;-47
2022/12/30 05:39:04;;;;;;;42.13;9.85;;;;;;;3.20;100.00;100889.22;5055602;28;20032;-48
2022/12/30 05:41:29;;;;;;;43.90;8.55;;;;;;;3.19;100.00;100891.66;5054540;28;20074;-48
2022/12/30 05:43:54;;;;;;;59.55;9.45;;;;;;;3.20;100.00;100901.97;5055345;28;20119;-45
2022/12/30 05:46:21;;;;;;;49.65;9.38;;;;;;;3.24;100.00;100893.72;5055273;28;20082;-45
2022/12/30 05:48:46;;;;;;;62.83;10.85;;;;;;;3.23;100.00;100901.28;5054550;28;20021;-48
2022/12/30 05:51:12;;;;;;;52.05;9.50;;;;;;;3.27;100.00;100896.44;5055040;28;20032;-48
2022/12/30 05:53:37;;;;;;;52.78;9.73;;;;;;;3.27;100.00;100896.44;5054918;28;20024;-48
2022/12/30 05:56:03;;;;;;;67.28;10.73;;;;;;;3.21;100.00;100898.59;5054544;28;20021;-45
2022/12/30 05:58:28;;;;;;;54.92;9.88;;;;;;;3.28;100.00;100893.09;5054754;28;20574;-45
2022/12/30 06:00:56;;;;;;;56.05;10.98;;;;;;;3.26;100.00;100894.66;5054838;28;20056;-44
2022/12/30 06:03:21;;;;;;;40.33;9.05;;;;;;;3.26;100.00;100892.13;5054593;28;20044;-45
2022/12/30 06:05:47;;;;;;;60.50;9.98;;;;;;;3.25;100.00;100895.47;5054461;28;20476;-44
2022/12/30 06:08:12;;;;;;;69.35;10.73;;;;;;;3.25;100.00;100892.94;5054919;28;20447;-47
2022/12/30 06:10:37;;;;;;;44.83;9.07;;;;;;;3.24;100.00;100900.47;5053591;28;20017;-47
2022/12/30 06:13:03;;;;;;;52.45;9.20;;;;;;;3.25;100.00;100880.19;5054554;28;20100;-48
2022/12/30 06:15:28;;;;;;;52.42;9.43;;;;;;;3.20;100.00;100878.16;5054617;28;20431;-46
2022/12/30 06:17:53;;;;;;;52.28;10.05;;;;;;;3.22;100.00;100872.34;5054177;28;20086;-48
2022/12/30 06:20:18;;;;;;;58.17;10.40;;;;;;;3.20;100.00;100868.84;5054519;28;20032;-48
2022/12/30 06:22:44;;;;;;;50.42;9.52;;;;;;;3.23;100.00;100874.13;5054302;28;20029;-48
2022/12/30 06:25:09;;;;;;;52.08;11.02;;;;;;;3.24;100.00;100869.91;5054078;28;20029;-47
2022/12/30 06:27:35;;;;;;;52.75;10.50;;;;;;;3.23;100.00;100868.16;5053883;28;20025;-47
2022/12/30 06:30:00;;;;;;;58.08;9.63;;;;;;;3.19;100.00;100869.63;5054626;28;20028;-48
2022/12/30 06:32:25;;;;;;;53.42;10.27;;;;;;;3.15;100.00;100854.06;5054004;28;20021;-48
2022/12/30 06:34:51;;;;;;;47.28;9.40;;;;;;;3.18;100.00;100854.28;5054166;28;20449;-47
2022/12/30 06:37:16;;;;;;;54.92;10.40;;;;;;;3.21;100.00;100868.03;5054458;28;20021;-47
2022/12/30 06:39:41;;;;;;;58.95;10.93;;;;;;;3.22;100.00;100867.25;5053474;28;20029;-46
2022/12/30 06:42:07;;;;;;;45.47;10.20;;;;;;;3.21;100.00;100865.50;5053977;28;20396;-45
2022/12/30 06:44:32;;;;;;;44.78;10.95;;;;;;;3.23;100.00;100856.28;5053687;28;20025;-47
2022/12/30 06:46:57;;;;;;;59.35;10.15;;;;;;;3.22;100.00;100841.78;5053864;28;20097;-44
2022/12/30 06:49:23;;;;;;;52.35;10.60;;;;;;;3.25;100.00;100831.81;5054227;28;20020;-48
2022/12/30 06:51:48;;;;;;;52.55;10.32;;;;;;;3.28;100.00;100831.97;5053245;28;20021;-46
2022/12/30 06:54:13;;;;;;;49.55;10.98;;;;;;;3.32;100.00;100821.94;5053693;28;20024;-44
2022/12/30 06:56:38;;;;;;;39.38;9.88;;;;;;;3.33;100.00;100818.63;5053610;28;20040;-48
2022/12/30 06:59:04;;;;;;;50.42;10.43;;;;;;;3.35;100.00;100817.06;5053267;28;20065;-48
2022/12/30 07:01:29;;;;;;;42.83;10.15;;;;;;;3.38;100.00;100817.22;5053040;28;20056;-47
2022/12/30 07:03:54;;;;;;;38.72;9.88;;;;;;;3.38;100.00;100807.03;5053800;28;20107;-48
2022/12/30 07:06:19;;;;;;;41.92;10.10;;;;;;;3.40;100.00;100803.78;5053415;28;20017;-46
2022/12/30 07:08:45;;;;;;;44.92;10.73;;;;;;;3.38;100.00;100796.84;5053341;28;20057;-48
2022/12/30 07:11:10;;;;;;;42.28;9.65;;;;;;;3.36;100.00;100788.25;5053574;28;20032;-45
2022/12/30 07:13:35;;;;;;;50.33;11.07;;;;;;;3.40;100.00;100777.44;5053056;28;20040;-48
2022/12/30 07:16:01;;;;;;;56.67;11.60;;;;;;;3.39;100.00;100780.78;5053256;28;20017;-48
2022/12/30 07:18:26;;;;;;;56.60;11.10;;;;;;;3.43;100.00;100775.06;5053704;28;20025;-47
2022/12/30 07:20:51;;;;;;;45.90;10.70;;;;;;;3.44;100.00;100771.72;5052760;28;20033;-47
2022/12/30 07:23:16;;;;;;;52.75;11.23;;;;;;;3.44;100.00;100784.47;5052457;28;20366;-49
2022/12/30 07:25:45;;;;;;;46.55;11.63;;;;;;;3.44;100.00;100784.47;5053172;28;20032;-44
2022/12/30 07:28:10;;;;;;;47.45;10.70;;;;;;;3.45;100.00;100784.53;5052926;28;20024;-45
2022/12/30 07:30:35;;;;;;;39.90;9.98;;;;;;;3.46;100.00;100777.78;5052987;28;20025;-48
2022/12/30 07:33:01;;;;;;;42.92;10.60;;;;;;;3.48;100.00;100783.84;5053374;28;20387;-46
2022/12/30 07:35:26;;;;;;;51.13;11.48;;;;;;;3.50;100.00;100766.97;5052737;28;20025;-45
2022/12/30 07:37:51;;;;;;;44.92;11.18;;;;;;;3.47;100.00;100761.69;5052718;28;20100;-48
2022/12/30 07:40:17;;;;;;;49.75;11.57;;;;;;;3.48;100.00;100757.50;5053203;28;20360;-48
2022/12/30 07:42:43;;;;;;;39.17;11.15;;;;;;;3.50;100.00;100760.97;5052478;28;20032;-44
2022/12/30 07:45:09;;;;;;;68.72;22.13;;;;;;;3.49;100.00;100743.97;5053078;28;20083;-46
2022/12/30 07:47:34;;;;;;;63.78;19.42;;;;;;;3.48;100.00;100745.63;5052980;28;20036;-47
2022/12/30 07:50:01;;;;;;;68.47;25.40;;;;;;;3.51;100.00;100742.38;5052302;28;20025;-45
2022/12/30 07:52:26;;;;;;;41.22;12.15;;;;;;;3.50;100.00;100731.31;5053051;28;20029;-47
2022/12/30 07:54:51;;;;;;;60.17;15.70;;;;;;;3.55;100.00;100726.44;5052252;28;20451;-46
2022/12/30 07:57:17;;;;;;;37.58;11.55;;;;;;;3.54;100.00;100717.03;5052668;28;20032;-45
2022/12/30 07:59:42;;;;;;;55.10;15.32;;;;;;;3.65;100.00;100720.22;5052510;28;20049;-47
2022/12/30 08:02:11;;;;;;;44.08;11.85;;;;;;;3.65;100.00;100715.97;5052259;28;20059;-48
2022/12/30 08:04:37;;;;;;;34.60;11.00;;;;;;;3.67;100.00;100699.09;5052360;28;20025;-48
2022/12/30 08:07:02;;;;;;;44.50;10.88;;;;;;;3.71;100.00;100700.16;5052738;28;20029;-46
2022/12/30 08:09:28;;;;;;;41.00;9.50;;;;;;;3.77;100.00;100690.28;5051932;28;20436;-47
2022/12/30 08:11:53;;;;;;;43.00;9.85;;;;;;;3.83;100.00;100695.72;5052742;28;20025;-45
2022/12/30 08:14:18;;;;;;;39.20;10.85;;;;;;;3.85;100.00;100693.25;5052994;28;20028;-46
2022/12/30 08:16:44;;;;;;;38.03;10.40;;;;;;;3.88;100.00;100690.88;5052016;28;20021;-48
2022/12/30 08:19:09;;;;;;;42.47;13.65;;;;;;;3.93;100.00;100687.75;5052379;28;20032;-45
2022/12/30 08:21:34;;;;;;;64.18;19.05;;;;;;;3.97;100.00;100682.84;5052371;28;20537;-48
2022/12/30 08:24:00;;;;;;;58.92;17.33;;;;;;;4.01;100.00;100687.31;5052155;28;20025;-51
2022/12/30 08:26:25;;;;;;;50.17;11.18;;;;;;;4.05;100.00;100682.44;5052581;28;20029;-50
2022/12/30 08:28:50;;;;;;;46.33;13.90;;;;;;;4.10;100.00;100680.16;5052568;28;20025;-48
2022/12/30 08:31:27;;;;;;;39.00;11.10;;;;;;;4.20;100.00;100684.94;5052138;28;20021;-48
2022/12/30 08:33:53;;;;;;;41.20;11.18;;;;;;;4.25;100.00;100670.75;5054373;28;20087;-47
2022/12/30 08:36:21;;;;;;;35.65;9.57;;;;;;;4.36;100.00;100668.75;5056587;28;20028;-48
2022/12/30 08:38:49;;;;;;;52.25;11.05;;;;;;;4.47;100.00;100666.75;5055710;28;20491;-49
2022/12/30 08:41:21;;;;;;;34.50;10.27;;;;;;;4.52;100.00;100655.13;5056071;28;20518;-48
2022/12/30 08:43:47;;;;;;;37.75;13.23;;;;;;;4.61;100.00;100650.47;5056137;28;20024;-48
2022/12/30 08:46:13;;;;;;;45.97;10.93;;;;;;;4.67;100.00;100649.88;5055774;28;20025;-47
2022/12/30 08:48:39;;;;;;;48.95;16.52;;;;;;;4.71;100.00;100645.81;5056165;28;20027;-48
2022/12/30 08:51:05;;;;;;;52.08;14.00;;;;;;;4.73;100.00;100647.66;5056355;28;20023;-49
2022/12/30 08:53:30;;;;;;;36.78;10.77;;;;;;;4.82;100.00;100649.78;5055401;28;20050;-48
2022/12/30 08:56:07;;;;;;;33.78;10.35;;;;;;;4.88;100.00;100639.88;5056131;28;20051;-50
2022/12/30 08:58:33;;;;;;;30.77;8.07;;;;;;;4.92;100.00;100629.00;5055379;28;20439;-46
2022/12/30 09:01:05;;;;;;;28.00;8.52;;;;;;;4.99;100.00;100636.97;5055641;28;20484;-49
2022/12/30 09:03:31;;;;;;;23.40;7.40;;;;;;;5.07;100.00;100625.44;5055808;28;20033;-49
2022/12/30 09:05:56;;;;;;;28.50;7.78;;;;;;;5.09;100.00;100623.84;5055635;28;20106;-48
2022/12/30 09:08:21;;;;;;;25.92;7.78;;;;;;;5.15;100.00;100626.72;5056053;28;20033;-47
2022/12/30 09:11:02;;;;;;;30.85;6.38;;;;;;;5.19;100.00;100620.94;5055780;28;20029;-49
2022/12/30 09:13:28;;;;;;;27.98;8.18;;;;;;;5.22;100.00;100621.06;5055080;28;20388;-45
2022/12/30 09:15:54;;;;;;;27.83;7.10;;;;;;;5.26;100.00;100607.63;5055630;28;20024;-50
2022/12/30 09:18:19;;;;;;;31.58;5.95;;;;;;;5.35;100.00;100606.34;5055790;28;20025;-49
2022/12/30 09:20:44;;;;;;;24.38;6.47;;;;;;;5.39;100.00;100598.00;5055105;28;20036;-47
2022/12/30 09:23:10;;;;;;;19.20;5.90;;;;;;;5.44;100.00;100607.63;5055663;28;20100;-50
2022/12/30 09:25:35;;;;;;;23.95;5.05;;;;;;;5.54;100.00;100600.38;5055431;28;20369;-49
2022/12/30 09:28:00;;;;;;;21.70;5.47;;;;;;;5.59;100.00;100602.34;5055174;28;20021;-48
2022/12/30 09:30:26;;;;;;;20.75;6.18;;;;;;;5.64;100.00;100601.69;5055446;28;20476;-49
2022/12/30 09:32:51;;;;;;;24.63;5.05;;;;;;;5.72;100.00;100595.22;5055210;28;20031;-49
2022/12/30 09:35:16;;;;;;;20.77;5.63;;;;;;;5.76;100.00;100595.44;5054720;28;20361;-49
2022/12/30 09:37:41;;;;;;;24.77;5.90;;;;;;;5.82;100.00;100593.97;5055378;28;20036;-50
2022/12/30 09:40:14;;;;;;;21.75;5.15;;;;;;;5.87;100.00;100584.81;5055610;28;20025;-49
2022/12/30 09:46:18;;;;;;;24.30;5.20;;;;;;;6.00;100.00;100574.31;5054689;28;20048;-49
2022/12/30 09:49:04;;;;;;;19.42;4.47;;;;;;;6.05;100.00;100565.16;5032332;28;20115;-49
2022/12/30 09:51:37;;;;;;;15.32;3.95;;;;;;;6.14;100.00;100563.84;5054686;28;20029;-48
2022/12/30 09:54:09;;;;;;;17.60;4.50;;;;;;;6.21;100.00;100553.03;5055172;28;20074;-50
2022/12/30 09:56:38;;;;;;;24.02;4.68;;;;;;;6.23;100.00;100556.53;5054272;28;20029;-49
2022/12/30 09:59:18;;;;;;;23.42;6.35;;;;;;;6.26;100.00;100549.88;5055013;28;20492;-45
2022/12/30 10:01:47;;;;;;;19.45;4.30;;;;;;;6.30;100.00;100544.88;5054247;28;20044;-48
2022/12/30 10:04:18;;;;;;;29.63;6.18;;;;;;;6.33;100.00;100529.66;5054651;28;20526;-49
2022/12/30 10:07:08;;;;;;;35.05;5.50;;;;;;;6.36;100.00;100527.22;5054747;28;20032;-50
2022/12/30 10:09:56;;;;;;;17.10;4.90;;;;;;;6.37;100.00;100528.97;5054019;28;20518;-49
2022/12/30 10:12:37;;;;;;;14.32;4.65;;;;;;;6.37;100.00;100514.47;5054529;28;20170;-49
2022/12/30 10:15:29;;;;;;;17.20;4.63;;;;;;;6.43;100.00;100513.88;5054925;28;20037;-49
2022/12/30 10:18:10;;;;;;;22.30;5.55;;;;;;;6.37;100.00;100506.81;5054269;28;20471;-47
2022/12/30 10:21:09;;;;;;;21.45;4.93;;;;;;;6.39;100.00;100487.28;5054463;28;20120;-46
2022/12/30 10:23:52;;;;;;;27.17;5.90;;;;;;;6.40;100.00;100470.22;5054072;28;20090;-49
2022/12/30 10:26:30;;;;;;;24.25;5.07;;;;;;;6.42;100.00;100466.03;5054549;28;20037;-45
2022/12/30 10:29:18;;;;;;;14.38;4.75;;;;;;;6.47;100.00;100459.44;5054566;28;20025;-47
2022/12/30 10:31:46;;;;;;;15.45;4.35;;;;;;;6.48;100.00;100456.06;5053727;28;20029;-47
2022/12/30 10:34:30;;;;;;;16.45;3.85;;;;;;;6.57;100.00;100458.97;5054556;28;20021;-45
2022/12/30 10:37:01;;;;;;;14.95;3.72;;;;;;;6.61;100.00;100438.59;5053893;28;20028;-47
2022/12/30 10:39:32;;;;;;;22.58;4.50;;;;;;;6.60;100.00;100430.06;5053977;28;20361;-48
2022/12/30 10:42:21;;;;;;;18.77;3.75;;;;;;;6.65;99.88;100428.56;5054162;28;20387;-47
2022/12/30 10:45:08;;;;;;;20.00;4.22;;;;;;;6.67;100.00;100414.09;5053567;28;20032;-50
2022/12/30 10:47:47;;;;;;;21.52;4.57;;;;;;;6.69;100.00;100409.91;5053856;28;20029;-49
2022/12/30 10:50:31;;;;;;;19.75;4.25;;;;;;;6.77;99.47;100396.53;5054336;28;20028;-47
2022/12/30 10:52:57;;;;;;;17.25;4.63;;;;;;;6.77;99.68;100386.31;5053327;28;20433;-46
2022/12/30 10:55:26;;;;;;;25.20;4.30;;;;;;;6.78;99.56;100363.31;5054109;28;20110;-49
2022/12/30 10:57:58;;;;;;;18.17;4.47;;;;;;;6.85;99.16;100369.53;5053053;28;20610;-48
2022/12/30 11:00:24;;;;;;;21.48;4.40;;;;;;;6.86;99.11;100361.88;5053477;28;20041;-46
2022/12/30 11:02:56;;;;;;;14.43;4.13;;;;;;;6.88;98.78;100347.47;5053647;28;20040;-45
2022/12/30 11:05:34;;;;;;;19.80;4.60;;;;;;;6.94;98.56;100343.38;5053471;28;20020;-49
2022/12/30 11:08:01;;;;;;;22.88;4.50;;;;;;;6.95;98.48;100340.84;5053519;28;20029;-45
2022/12/30 11:10:27;;;;;;;22.85;4.03;;;;;;;7.00;98.22;100328.22;5053835;28;20043;-49
2022/12/30 11:15:54;;;;;;;22.63;3.92;;;;;;;7.08;97.71;100321.66;5053667;28;20499;-49
2022/12/30 11:18:24;;;;;;;19.33;4.30;;;;;;;7.12;97.30;100312.41;5053634;28;20028;-48
2022/12/30 11:20:59;;;;;;;22.63;4.95;;;;;;;7.12;97.23;100303.00;5052363;28;20361;-49
2022/12/30 11:23:32;;;;;;;22.05;3.92;;;;;;;7.12;97.60;100299.59;5053741;28;20033;-45
2022/12/30 11:26:00;;;;;;;17.88;4.00;;;;;;;7.17;96.77;100283.53;5053144;28;20029;-48
2022/12/30 11:28:31;;;;;;;22.13;4.90;;;;;;;7.20;96.34;100262.28;5053129;28;20056;-47
2022/12/30 11:31:02;;;;;;;19.45;4.43;;;;;;;7.21;97.05;100259.75;5053774;28;20029;-46
2022/12/30 11:33:32;;;;;;;21.23;4.85;;;;;;;7.22;96.35;100248.69;5052672;28;20456;-45
2022/12/30 11:36:15;;;;;;;22.33;4.95;;;;;;;7.27;96.01;100238.59;5053081;28;20530;-47
2022/12/30 11:38:45;;;;;;;19.02;3.92;;;;;;;7.29;95.63;100236.94;5053190;28;20032;-47
2022/12/30 11:41:16;;;;;;;22.95;4.68;;;;;;;7.32;95.60;100228.47;5052532;28;20369;-45
2022/12/30 11:43:43;;;;;;;24.58;6.18;;;;;;;7.34;95.37;100212.34;5052679;28;20028;-48
2022/12/30 11:46:11;;;;;;;17.65;5.28;;;;;;;7.36;95.28;100210.69;5053068;28;20108;-46
2022/12/30 11:48:38;;;;;;;;;;;;;;;7.41;95.71;100206.59;5052627;28;20025;-47
2022/12/30 11:51:16;;;;;;;34.08;6.18;;;;;;;7.40;95.28;100196.28;5053190;28;19908;-49
2022/12/30 11:53:42;;;;;;;23.55;4.85;;;;;;;7.47;94.82;100193.09;5052768;28;20029;-48
2022/12/30 11:56:07;;;;;;;19.23;4.22;;;;;;;7.51;94.19;100184.66;5052255;28;20036;-48
2022/12/30 11:58:35;;;;;;;22.13;4.78;;;;;;;7.54;94.20;100182.22;5052565;28;20431;-48
2022/12/30 12:01:10;;;;;;;32.50;4.68;;;;;;;7.58;94.05;100166.09;5052509;28;20499;-47
2022/12/30 12:04:05;;;;;;;22.60;4.60;;;;;;;7.61;94.51;100151.63;5052548;28;20029;-49
2022/12/30 12:06:30;;;;;;;30.23;6.70;;;;;;;7.59;93.57;100136.19;5047687;28;20122;-49
2022/12/30 12:09:05;;;;;;;44.70;16.55;;;;;;;7.59;93.82;100118.22;5051792;28;20067;-50
2022/12/30 12:11:37;;;;;;;79.32;30.98;;;;;;;7.62;93.73;100115.78;5052371;28;20033;-50
2022/12/30 12:14:16;;;;;;;163.90;75.07;;;;;;;7.64;93.39;100108.97;5052698;28;20025;-50
2022/12/30 12:16:59;;;;;;;30.00;10.73;;;;;;;7.67;93.45;100113.31;5051715;28;20498;-46